Terminal Aerodrome Forecast
Issued by NWS Greer, SC

Home | Current Version | Previous Version | Text Only | Print | Product List | Glossary On
Versions: 1 2 3 4 5 6 7 8 9 10 11 12 13 14 15 16 17 18
000
FTUS42 KGSP 261133
TAFAVL
TAF
KAVL 261133Z 2612/2712 VRB02KT 3SM BR SCT003
      TEMPO 2612/2613 2SM BR BKN003
     FM261300 VRB02KT P6SM BKN060
     FM261600 12003KT P6SM SCT050 PROB30 2621/2702 4SM -TSRA
      BKN035CB
     FM270200 VRB02KT P6SM BKN060
     FM270600 VRB02KT 3SM BR BKN008=

USA.gov is the U.S. government's official web portal to all federal, state and local government web resources and services.